Time;durP1;ratioP1;P1;durP2;ratioP2;P2;SDS_P1;SDS_P2;PMS_P1;PMS_P2;Temp;Humidity;BMP_temperature;BMP_pressure;BME280_temperature;BME280_humidity;BME280_pressure;Samples;Min_cycle;Max_cycle;Signal;HPM_P1;HPM_P2
2021/04/23 06:07:57;;;;;;;15.10;5.93;;;;;;;;;;5059901;28;20394;-66
2021/04/23 06:10:23;;;;;;;16.02;7.15;;;;;;;;;;5052276;28;20138;-64
2021/04/23 06:12:48;;;;;;;13.25;6.20;;;;;;;;;;5058928;28;20509;-63
2021/04/23 06:15:14;;;;;;;14.73;6.43;;;;;;;;;;5060728;28;20031;-64
2021/04/23 06:17:39;;;;;;;57.40;13.48;;;;;;;;;;5071744;28;20013;-64
2021/04/23 06:20:06;;;;;;;14.25;5.82;;;;;;;;;;5071054;28;20020;-64
2021/04/23 06:22:32;;;;;;;14.05;5.80;;;;;;;;;;5058997;28;20058;-65
2021/04/23 06:24:57;;;;;;;19.73;6.13;;;;;;;;;;5069247;28;20025;-65
2021/04/23 06:27:23;;;;;;;12.68;5.93;;;;;;;;;;5066287;28;20025;-65
2021/04/23 06:29:50;;;;;;;17.15;7.15;;;;;;;;;;5055017;28;20101;-63
2021/04/23 06:32:16;;;;;;;14.32;6.25;;;;;;;;;;5062656;28;20033;-63
2021/04/23 06:34:42;;;;;;;16.02;6.25;;;;;;;;;;5070564;28;20367;-65
2021/04/23 06:37:08;;;;;;;15.38;5.55;;;;;;;;;;5069271;28;20530;-64
2021/04/23 06:39:33;;;;;;;11.52;5.95;;;;;;;;;;5072445;28;20024;-61
2021/04/23 06:41:59;;;;;;;11.30;5.80;;;;;;;;;;5074292;28;20050;-63
2021/04/23 06:44:25;;;;;;;13.55;5.95;;;;;;;;;;5080768;28;20380;-64
2021/04/23 06:46:50;;;;;;;11.18;6.30;;;;;;;;;;5070085;28;20025;-64
2021/04/23 06:49:17;;;;;;;12.38;5.63;;;;;;;;;;5074036;28;20008;-63
2021/04/23 06:51:42;;;;;;;14.27;5.70;;;;;;;;;;5065525;28;20532;-64
2021/04/23 06:54:08;;;;;;;13.27;5.65;;;;;;;;;;5078090;28;20077;-64
2021/04/23 06:56:33;;;;;;;14.10;5.88;;;;;;;;;;5070804;28;20021;-64
2021/04/23 06:58:59;;;;;;;17.85;6.18;;;;;;;;;;5054249;28;20012;-64
2021/04/23 07:01:25;;;;;;;11.07;5.38;;;;;;;;;;5062740;28;20062;-63
2021/04/23 07:03:50;;;;;;;15.77;5.60;;;;;;;;;;5067435;28;20477;-63
2021/04/23 07:06:16;;;;;;;13.15;5.95;;;;;;;;;;5054126;28;20053;-64
2021/04/23 07:08:41;;;;;;;15.95;5.45;;;;;;;;;;5081851;28;20026;-65
2021/04/23 07:11:07;;;;;;;12.13;4.78;;;;;;;;;;5070376;28;20028;-66
2021/04/23 07:13:33;;;;;;;18.80;5.35;;;;;;;;;;5080663;28;20536;-65
2021/04/23 07:15:58;;;;;;;14.43;5.88;;;;;;;;;;5065480;28;20024;-62
2021/04/23 07:18:26;;;;;;;14.98;5.75;;;;;;;;;;5071467;28;20024;-63
2021/04/23 07:20:51;;;;;;;13.77;5.40;;;;;;;;;;5057229;28;20029;-63
2021/04/23 07:23:17;;;;;;;17.45;6.05;;;;;;;;;;5069778;28;20412;-63
2021/04/23 07:25:42;;;;;;;10.48;5.15;;;;;;;;;;5060742;28;20086;-63
2021/04/23 07:28:08;;;;;;;14.38;5.28;;;;;;;;;;5062371;28;20495;-64
2021/04/23 07:30:35;;;;;;;15.55;5.20;;;;;;;;;;5068186;28;20024;-67
2021/04/23 07:33:00;;;;;;;13.77;4.95;;;;;;;;;;5054861;28;20021;-68
2021/04/23 07:35:26;;;;;;;21.92;6.38;;;;;;;;;;5053085;28;20571;-69
2021/04/23 07:37:51;;;;;;;10.95;4.70;;;;;;;;;;5059733;28;20104;-69
2021/04/23 07:40:18;;;;;;;11.65;4.80;;;;;;;;;;5068244;28;20081;-68
2021/04/23 07:42:43;;;;;;;24.23;5.97;;;;;;;;;;5055828;28;20155;-67
2021/04/23 07:45:09;;;;;;;11.35;4.32;;;;;;;;;;5068335;28;20048;-68
2021/04/23 07:47:35;;;;;;;15.27;5.65;;;;;;;;;;5057643;28;20027;-68
2021/04/23 07:50:01;;;;;;;15.40;4.50;;;;;;;;;;5047859;28;20021;-68
2021/04/23 07:52:27;;;;;;;16.35;4.78;;;;;;;;;;5053529;28;20021;-67
2021/04/23 07:54:53;;;;;;;12.07;4.35;;;;;;;;;;5042778;28;20351;-66
2021/04/23 07:57:19;;;;;;;13.00;3.90;;;;;;;;;;5053634;28;20012;-66
2021/04/23 07:59:44;;;;;;;7.47;3.10;;;;;;;;;;5051438;28;20496;-66
2021/04/23 08:02:10;;;;;;;11.93;3.15;;;;;;;;;;5041220;28;20021;-66
2021/04/23 08:04:38;;;;;;;8.90;3.15;;;;;;;;;;5041045;28;20108;-65
2021/04/23 08:07:05;;;;;;;9.70;2.93;;;;;;;;;;5048810;28;20077;-68
2021/04/23 08:09:31;;;;;;;12.57;2.83;;;;;;;;;;5040616;28;20369;-69
2021/04/23 08:11:56;;;;;;;14.57;3.20;;;;;;;;;;5040343;28;20025;-70
2021/04/23 08:14:22;;;;;;;8.45;2.92;;;;;;;;;;5045145;28;20044;-68
2021/04/23 08:16:47;;;;;;;5.53;2.25;;;;;;;;;;5043099;28;20082;-69
2021/04/23 08:19:15;;;;;;;7.55;2.15;;;;;;;;;;5040678;28;20009;-67
2021/04/23 08:21:41;;;;;;;3.78;1.73;;;;;;;;;;5037633;28;21305;-67
2021/04/23 08:24:06;;;;;;;13.20;2.17;;;;;;;;;;5040032;28;20021;-67
2021/04/23 08:26:32;;;;;;;11.85;2.72;;;;;;;;;;5039606;28;20028;-67
2021/04/23 08:28:57;;;;;;;13.43;2.90;;;;;;;;;;5040509;28;20028;-66
2021/04/23 08:31:23;;;;;;;13.65;3.50;;;;;;;;;;5050575;28;20469;-65
2021/04/23 08:33:49;;;;;;;22.38;5.28;;;;;;;;;;5041657;28;20426;-62
2021/04/23 08:36:14;;;;;;;12.15;2.88;;;;;;;;;;5037284;28;20351;-62
2021/04/23 08:38:39;;;;;;;19.88;3.95;;;;;;;;;;5042998;28;20017;-64
2021/04/23 08:41:05;;;;;;;12.93;3.40;;;;;;;;;;5043534;28;20028;-65
2021/04/23 08:43:30;;;;;;;16.88;3.70;;;;;;;;;;5041183;28;20035;-65
2021/04/23 08:45:56;;;;;;;10.13;3.15;;;;;;;;;;5046037;28;20037;-65
2021/04/23 08:48:22;;;;;;;10.70;3.25;;;;;;;;;;5051436;28;20443;-66
2021/04/23 08:50:47;;;;;;;10.65;2.55;;;;;;;;;;5053070;28;20147;-68
2021/04/23 08:53:13;;;;;;;7.18;2.42;;;;;;;;;;5054885;28;20037;-67
2021/04/23 08:55:39;;;;;;;8.98;2.90;;;;;;;;;;5041326;28;20028;-67
2021/04/23 08:58:04;;;;;;;8.27;2.50;;;;;;;;;;5048943;28;20052;-68
2021/04/23 09:00:29;;;;;;;10.95;3.08;;;;;;;;;;5042688;28;20413;-69
2021/04/23 09:02:55;;;;;;;14.05;3.47;;;;;;;;;;5051355;28;20035;-71
2021/04/23 09:05:20;;;;;;;8.23;2.95;;;;;;;;;;5035182;28;20021;-71
2021/04/23 09:07:59;;;;;;;10.57;3.10;;;;;;;;;;5039678;28;20634;-71
2021/04/23 09:10:25;;;;;;;7.43;2.43;;;;;;;;;;5035560;28;20022;-70
2021/04/23 09:13:03;;;;;;;7.85;2.80;;;;;;;;;;5039859;28;20090;-65
2021/04/23 09:15:29;;;;;;;11.77;3.22;;;;;;;;;;5033755;28;20021;-66
2021/04/23 09:18:08;;;;;;;18.88;3.72;;;;;;;;;;5045990;28;20442;-72
2021/04/23 09:20:34;;;;;;;7.78;2.95;;;;;;;;;;5040347;28;20024;-67
2021/04/23 09:23:07;;;;;;;10.48;2.78;;;;;;;;;;5042248;28;20029;-66
2021/04/23 09:25:41;;;;;;;12.20;3.15;;;;;;;;;;5047450;28;20035;-65
2021/04/23 09:28:06;;;;;;;14.20;4.07;;;;;;;;;;5039302;28;20031;-67
2021/04/23 09:30:32;;;;;;;12.35;3.33;;;;;;;;;;5053708;28;20013;-65
2021/04/23 09:32:57;;;;;;;8.23;3.25;;;;;;;;;;5053340;28;20025;-65
2021/04/23 09:35:23;;;;;;;7.60;3.30;;;;;;;;;;5045359;28;20489;-65
2021/04/23 09:37:50;;;;;;;8.23;3.58;;;;;;;;;;5039183;28;20021;-65
2021/04/23 09:40:18;;;;;;;10.38;3.42;;;;;;;;;;5050015;28;20033;-65
2021/04/23 09:42:51;;;;;;;8.95;2.80;;;;;;;;;;5031147;28;20512;-65
2021/04/23 09:45:18;;;;;;;8.48;2.63;;;;;;;;;;5042332;28;20167;-64
2021/04/23 09:47:43;;;;;;;7.85;3.40;;;;;;;;;;5049190;28;20160;-64
2021/04/23 09:50:09;;;;;;;8.50;3.50;;;;;;;;;;5035776;28;20112;-65
2021/04/23 09:52:44;;;;;;;10.70;3.92;;;;;;;;;;5040688;28;20090;-65
2021/04/23 09:55:11;;;;;;;5.78;3.47;;;;;;;;;;5041659;28;20033;-65
2021/04/23 09:57:37;;;;;;;7.47;3.05;;;;;;;;;;5044593;28;20086;-65
2021/04/23 10:00:07;;;;;;;7.82;3.63;;;;;;;;;;5049948;28;20021;-64
2021/04/23 10:02:33;;;;;;;12.07;3.63;;;;;;;;;;5049912;28;20013;-65
2021/04/23 10:04:58;;;;;;;6.97;3.00;;;;;;;;;;5036922;28;20446;-65
2021/04/23 10:07:28;;;;;;;9.88;3.40;;;;;;;;;;5040592;28;20511;-64
2021/04/23 10:10:08;;;;;;;10.80;3.50;;;;;;;;;;5042346;28;20044;-64
2021/04/23 10:12:35;;;;;;;9.80;3.15;;;;;;;;;;5054572;28;20032;-64
2021/04/23 10:15:06;;;;;;;10.95;3.80;;;;;;;;;;5040162;28;20075;-64
2021/04/23 10:17:32;;;;;;;8.18;3.80;;;;;;;;;;5035225;28;20492;-65
2021/04/23 10:19:58;;;;;;;18.02;3.55;;;;;;;;;;5043925;28;20040;-65
2021/04/23 10:22:23;;;;;;;8.05;3.60;;;;;;;;;;5042744;28;20051;-65
2021/04/23 10:24:50;;;;;;;7.32;3.40;;;;;;;;;;5044991;28;20022;-65
2021/04/23 10:27:16;;;;;;;13.60;3.70;;;;;;;;;;5041788;28;20025;-65
2021/04/23 10:29:43;;;;;;;11.45;4.22;;;;;;;;;;5054607;28;20116;-65
2021/04/23 10:32:09;;;;;;;10.13;3.60;;;;;;;;;;5050547;28;20028;-65
2021/04/23 10:34:35;;;;;;;8.93;4.05;;;;;;;;;;5058374;28;20067;-65
2021/04/23 10:37:01;;;;;;;11.20;3.47;;;;;;;;;;5058083;28;20179;-64
2021/04/23 10:39:27;;;;;;;6.07;3.05;;;;;;;;;;5041005;28;20022;-65
2021/04/23 10:41:53;;;;;;;10.38;3.47;;;;;;;;;;5037145;28;20014;-64
2021/04/23 10:44:21;;;;;;;7.43;3.40;;;;;;;;;;5044713;28;20020;-64
2021/04/23 10:46:49;;;;;;;7.53;3.13;;;;;;;;;;5060815;28;20044;-66
2021/04/23 10:49:14;;;;;;;8.48;3.13;;;;;;;;;;5051499;28;20443;-66
2021/04/23 10:51:42;;;;;;;9.02;3.50;;;;;;;;;;5066374;28;20024;-66
2021/04/23 10:54:15;;;;;;;8.05;3.67;;;;;;;;;;5057899;28;20479;-65
2021/04/23 10:56:53;;;;;;;8.63;2.92;;;;;;;;;;5064129;28;20469;-66
2021/04/23 10:59:26;;;;;;;6.97;3.40;;;;;;;;;;5068396;28;20024;-65
2021/04/23 11:02:11;;;;;;;5.20;2.83;;;;;;;;;;5051004;28;20448;-65
2021/04/23 11:04:52;;;;;;;6.30;3.03;;;;;;;;;;5053262;28;20073;-62
2021/04/23 11:07:17;;;;;;;6.47;3.40;;;;;;;;;;5055514;28;20103;-63
2021/04/23 11:09:56;;;;;;;5.70;3.28;;;;;;;;;;5041178;28;20033;-63
2021/04/23 11:12:21;;;;;;;6.28;3.20;;;;;;;;;;5042129;28;20104;-62
2021/04/23 11:14:47;;;;;;;4.78;3.10;;;;;;;;;;5043954;28;20108;-64
2021/04/23 11:17:25;;;;;;;10.57;3.42;;;;;;;;;;5040714;28;20025;-63
2021/04/23 11:19:51;;;;;;;23.35;3.80;;;;;;;;;;5045297;28;20431;-62
2021/04/23 11:22:21;;;;;;;99.57;10.50;;;;;;;;;;5052960;28;20381;-63
2021/04/23 11:25:05;;;;;;;62.47;6.50;;;;;;;;;;5063268;28;20029;-64
2021/04/23 11:27:31;;;;;;;17.15;3.60;;;;;;;;;;5052165;28;20404;-64
2021/04/23 11:30:04;;;;;;;6.57;3.22;;;;;;;;;;5069913;28;20025;-65
2021/04/23 11:32:31;;;;;;;6.90;3.70;;;;;;;;;;5060127;28;20027;-64
2021/04/23 11:34:57;;;;;;;7.30;3.25;;;;;;;;;;5053060;28;20052;-63
2021/04/23 11:37:31;;;;;;;7.97;3.08;;;;;;;;;;5052822;28;20018;-63
2021/04/23 11:40:15;;;;;;;30.33;4.03;;;;;;;;;;5060680;28;20032;-65
2021/04/23 11:42:44;;;;;;;8.27;2.75;;;;;;;;;;5037759;28;20470;-63
2021/04/23 11:45:10;;;;;;;7.32;2.55;;;;;;;;;;5044991;28;20028;-63
2021/04/23 11:47:37;;;;;;;11.95;2.85;;;;;;;;;;5043576;28;20029;-63
2021/04/23 11:50:05;;;;;;;8.60;2.78;;;;;;;;;;5044660;28;20023;-63
2021/04/23 11:52:31;;;;;;;5.60;3.05;;;;;;;;;;5045638;28;20097;-63
2021/04/23 11:54:57;;;;;;;12.25;3.42;;;;;;;;;;5051082;28;20112;-76
2021/04/23 11:57:29;;;;;;;7.50;2.92;;;;;;;;;;5067635;28;20066;-65
2021/04/23 12:00:08;;;;;;;18.00;2.58;;;;;;;;;;5050351;28;20017;-68
2021/04/23 12:02:39;;;;;;;7.45;2.75;;;;;;;;;;5040302;28;20127;-69
2021/04/23 12:05:05;;;;;;;8.73;3.47;;;;;;;;;;5055035;28;20051;-68
2021/04/23 12:07:51;;;;;;;12.25;3.47;;;;;;;;;;5057806;28;20561;-68
2021/04/23 12:10:17;;;;;;;15.77;3.58;;;;;;;;;;5044389;28;20028;-67
2021/04/23 12:12:45;;;;;;;7.53;2.75;;;;;;;;;;5063824;28;20013;-67
2021/04/23 12:15:25;;;;;;;7.47;3.20;;;;;;;;;;5048819;28;20028;-67
2021/04/23 12:17:52;;;;;;;8.70;2.67;;;;;;;;;;5049240;28;20418;-67
2021/04/23 12:20:19;;;;;;;6.25;2.88;;;;;;;;;;5056881;28;20476;-68
2021/04/23 12:22:46;;;;;;;8.10;2.85;;;;;;;;;;5056428;28;20095;-72
2021/04/23 12:25:31;;;;;;;60.53;7.43;;;;;;;;;;5054301;28;20017;-73
2021/04/23 12:28:15;;;;;;;65.50;10.10;;;;;;;;;;5050339;28;20469;-74
2021/04/23 12:30:41;;;;;;;11.65;3.45;;;;;;;;;;5052526;28;20048;-68
2021/04/23 12:33:06;;;;;;;6.85;3.28;;;;;;;;;;5059863;28;20069;-70
2021/04/23 12:35:36;;;;;;;11.88;3.47;;;;;;;;;;5051756;28;20029;-73
2021/04/23 12:38:02;;;;;;;10.85;3.60;;;;;;;;;;5042975;28;20009;-68
2021/04/23 12:40:32;;;;;;;14.00;3.65;;;;;;;;;;5042857;28;20159;-68
2021/04/23 12:42:57;;;;;;;;;;;;;;;;;;5039112;28;20075;-69
2021/04/23 12:45:22;;;;;;;14.43;4.37;;;;;;;;;;5033645;28;20003;-70
2021/04/23 12:47:50;;;;;;;8.52;4.00;;;;;;;;;;5041587;28;20309;-69
2021/04/23 12:50:27;;;;;;;12.38;3.80;;;;;;;;;;5040970;28;20474;-67
2021/04/23 12:52:54;;;;;;;12.75;4.13;;;;;;;;;;5040683;28;20040;-68
2021/04/23 12:55:20;;;;;;;15.65;3.90;;;;;;;;;;5039874;28;20026;-72
2021/04/23 12:57:45;;;;;;;11.13;4.40;;;;;;;;;;5046688;28;20017;-73
2021/04/23 13:00:12;;;;;;;18.73;3.88;;;;;;;;;;5052961;28;20028;-71
2021/04/23 13:02:38;;;;;;;10.60;4.32;;;;;;;;;;5051984;28;20025;-78
2021/04/23 13:05:06;;;;;;;14.80;4.35;;;;;;;;;;5057056;28;20066;-77
2021/04/23 13:07:32;;;;;;;8.80;4.00;;;;;;;;;;5050985;28;20098;-69
2021/04/23 13:10:03;;;;;;;10.75;4.88;;;;;;;;;;5049676;28;20480;-73
2021/04/23 13:12:34;;;;;;;20.40;8.20;;;;;;;;;;5044692;28;20152;-77
2021/04/23 13:15:00;;;;;;;14.82;4.70;;;;;;;;;;5052299;28;20024;-68
2021/04/23 13:17:36;;;;;;;8.98;4.55;;;;;;;;;;5045628;28;20017;-68
2021/04/23 13:20:14;;;;;;;9.10;4.28;;;;;;;;;;5032762;28;20034;-69
2021/04/23 13:22:45;;;;;;;7.00;3.92;;;;;;;;;;5032436;28;20021;-68
2021/04/23 13:25:16;;;;;;;9.20;3.60;;;;;;;;;;5032811;28;20087;-69
2021/04/23 13:27:42;;;;;;;9.88;4.50;;;;;;;;;;5030503;28;20025;-68
2021/04/23 13:30:09;;;;;;;8.90;4.25;;;;;;;;;;5032957;28;20063;-68
2021/04/23 13:32:53;;;;;;;11.88;4.43;;;;;;;;;;5032477;28;20094;-68
2021/04/23 13:35:26;;;;;;;10.63;4.28;;;;;;;;;;5032733;28;20473;-68
2021/04/23 13:37:52;;;;;;;7.28;3.92;;;;;;;;;;5031994;28;20025;-68
2021/04/23 13:40:25;;;;;;;9.63;4.13;;;;;;;;;;5032794;28;20032;-68
2021/04/23 13:42:50;;;;;;;11.70;3.90;;;;;;;;;;5032461;28;20025;-68
2021/04/23 13:45:16;;;;;;;10.23;4.25;;;;;;;;;;5032743;28;20214;-68
2021/04/23 13:47:42;;;;;;;9.15;4.10;;;;;;;;;;5032318;28;20509;-68
2021/04/23 13:50:13;;;;;;;9.52;4.07;;;;;;;;;;5030240;28;20575;-68
2021/04/23 13:52:44;;;;;;;7.93;3.78;;;;;;;;;;5032012;28;20135;-68
2021/04/23 13:55:10;;;;;;;16.33;4.43;;;;;;;;;;5032547;28;20018;-68
2021/04/23 13:57:36;;;;;;;9.43;4.13;;;;;;;;;;5032427;28;20426;-68
2021/04/23 14:00:01;;;;;;;19.63;4.68;;;;;;;;;;5032297;28;20108;-68
2021/04/23 14:02:27;;;;;;;13.80;4.93;;;;;;;;;;5031465;28;20466;-68
2021/04/23 14:04:55;;;;;;;10.25;4.47;;;;;;;;;;5032010;28;20013;-69
2021/04/23 14:07:23;;;;;;;8.50;3.97;;;;;;;;;;5031646;28;20051;-69
2021/04/23 14:09:48;;;;;;;8.25;4.10;;;;;;;;;;5032383;28;20096;-69
2021/04/23 14:12:19;;;;;;;14.43;3.97;;;;;;;;;;5032488;28;20021;-69
2021/04/23 14:14:45;;;;;;;8.32;3.58;;;;;;;;;;5032138;28;20098;-69
2021/04/23 14:17:12;;;;;;;9.23;3.97;;;;;;;;;;5032294;28;20046;-69
2021/04/23 14:19:38;;;;;;;6.45;3.97;;;;;;;;;;5032158;28;20017;-69
2021/04/23 14:22:06;;;;;;;9.10;3.92;;;;;;;;;;5032321;28;20370;-69
2021/04/23 14:24:31;;;;;;;10.38;3.85;;;;;;;;;;5032235;28;20014;-69
2021/04/23 14:26:57;;;;;;;11.82;4.40;;;;;;;;;;5031846;28;20437;-69
2021/04/23 14:29:23;;;;;;;7.75;4.50;;;;;;;;;;5034429;28;20092;-69
2021/04/23 14:31:50;;;;;;;7.47;3.85;;;;;;;;;;5036099;28;20013;-70
2021/04/23 14:34:16;;;;;;;13.43;4.32;;;;;;;;;;5036086;28;20052;-69
2021/04/23 14:36:42;;;;;;;7.72;4.05;;;;;;;;;;5035737;28;20045;-69
2021/04/23 14:39:08;;;;;;;12.13;3.97;;;;;;;;;;5033311;28;20564;-69
2021/04/23 14:41:34;;;;;;;6.95;3.88;;;;;;;;;;5035900;28;20052;-69
2021/04/23 14:44:00;;;;;;;8.05;4.10;;;;;;;;;;5035944;28;20037;-69
2021/04/23 14:46:26;;;;;;;7.97;4.20;;;;;;;;;;5035766;28;20045;-69
2021/04/23 14:48:51;;;;;;;8.90;4.30;;;;;;;;;;5035554;28;20445;-69
2021/04/23 14:51:17;;;;;;;11.93;4.55;;;;;;;;;;5035901;28;20040;-69
2021/04/23 14:53:45;;;;;;;7.38;3.55;;;;;;;;;;5035795;28;20017;-69
2021/04/23 14:56:11;;;;;;;7.20;3.50;;;;;;;;;;5035765;28;20026;-69
2021/04/23 14:58:36;;;;;;;8.55;4.03;;;;;;;;;;5035425;28;20017;-69
2021/04/23 15:01:03;;;;;;;11.68;4.20;;;;;;;;;;5036201;28;20100;-69
2021/04/23 15:03:28;;;;;;;8.88;4.13;;;;;;;;;;5035558;28;20025;-69
2021/04/23 15:05:54;;;;;;;8.18;3.53;;;;;;;;;;5035244;28;20049;-69
2021/04/23 15:08:20;;;;;;;8.48;3.50;;;;;;;;;;5034839;28;20022;-69
2021/04/23 15:10:46;;;;;;;12.45;4.13;;;;;;;;;;5035234;28;20022;-70
2021/04/23 15:13:12;;;;;;;7.50;3.90;;;;;;;;;;5035417;28;20025;-70
2021/04/23 15:15:37;;;;;;;7.28;4.38;;;;;;;;;;5035282;28;20547;-68
2021/04/23 15:18:03;;;;;;;12.50;3.88;;;;;;;;;;5034085;28;20017;-70
2021/04/23 15:20:29;;;;;;;11.85;4.13;;;;;;;;;;5035398;28;20384;-68
2021/04/23 15:22:54;;;;;;;7.32;3.30;;;;;;;;;;5034967;28;20096;-70
2021/04/23 15:25:20;;;;;;;6.88;3.38;;;;;;;;;;5035215;28;20432;-70
2021/04/23 15:27:47;;;;;;;13.10;4.15;;;;;;;;;;5034970;28;20026;-70
2021/04/23 15:30:15;;;;;;;10.95;4.10;;;;;;;;;;5035234;28;20014;-70
2021/04/23 15:32:41;;;;;;;7.80;4.28;;;;;;;;;;5034628;28;20074;-68
2021/04/23 15:35:07;;;;;;;7.75;3.80;;;;;;;;;;5035058;28;20022;-67
2021/04/23 15:37:33;;;;;;;6.13;3.80;;;;;;;;;;5034364;28;20477;-68
2021/04/23 15:39:59;;;;;;;8.27;4.00;;;;;;;;;;5034538;28;20029;-68
2021/04/23 15:42:24;;;;;;;8.80;3.60;;;;;;;;;;5035001;28;20021;-70
2021/04/23 15:44:50;;;;;;;9.02;3.83;;;;;;;;;;5034582;28;20018;-70
2021/04/23 15:47:16;;;;;;;8.20;3.38;;;;;;;;;;5034655;28;20034;-70
2021/04/23 15:49:42;;;;;;;8.40;4.00;;;;;;;;;;5034740;28;20509;-70
2021/04/23 15:52:08;;;;;;;8.13;3.80;;;;;;;;;;5034838;28;20032;-70
2021/04/23 15:54:33;;;;;;;8.90;4.07;;;;;;;;;;5034645;28;20087;-70
2021/04/23 15:56:59;;;;;;;8.90;3.65;;;;;;;;;;5034457;28;20104;-70
2021/04/23 15:59:25;;;;;;;8.30;3.40;;;;;;;;;;5034681;28;20036;-70
2021/04/23 16:01:50;;;;;;;8.00;3.65;;;;;;;;;;5034312;28;20091;-70
2021/04/23 16:04:16;;;;;;;10.35;4.13;;;;;;;;;;5034646;28;20462;-68
2021/04/23 16:06:41;;;;;;;7.38;3.30;;;;;;;;;;5033753;28;20049;-68
2021/04/23 16:09:07;;;;;;;9.35;3.53;;;;;;;;;;5033834;28;20045;-67
2021/04/23 16:11:33;;;;;;;13.02;3.85;;;;;;;;;;5034633;28;20060;-67
2021/04/23 16:13:59;;;;;;;7.93;3.20;;;;;;;;;;5034373;28;20013;-68
2021/04/23 16:16:24;;;;;;;7.57;3.28;;;;;;;;;;5032896;28;20101;-68
2021/04/23 16:18:50;;;;;;;7.05;3.67;;;;;;;;;;5033887;28;20104;-68
2021/04/23 16:21:16;;;;;;;7.35;3.53;;;;;;;;;;5034265;28;20478;-68
2021/04/23 16:23:41;;;;;;;6.82;3.80;;;;;;;;;;5034136;28;20017;-68
2021/04/23 16:26:07;;;;;;;10.73;3.90;;;;;;;;;;5034092;28;20056;-68
2021/04/23 16:28:32;;;;;;;7.82;3.90;;;;;;;;;;5033907;28;20040;-68
2021/04/23 16:30:58;;;;;;;9.18;3.47;;;;;;;;;;5033644;28;20389;-68
2021/04/23 16:33:23;;;;;;;10.40;3.85;;;;;;;;;;5033848;28;20171;-67
2021/04/23 16:35:49;;;;;;;8.20;4.03;;;;;;;;;;5033821;28;20017;-70
2021/04/23 16:38:14;;;;;;;8.02;3.53;;;;;;;;;;5033369;28;20112;-68
2021/04/23 16:40:40;;;;;;;11.18;4.20;;;;;;;;;;5033530;28;20482;-68
2021/04/23 16:43:05;;;;;;;10.07;3.88;;;;;;;;;;5033875;28;20022;-68
2021/04/23 16:45:36;;;;;;;10.50;3.65;;;;;;;;;;5033772;28;20488;-68
2021/04/23 16:48:02;;;;;;;10.73;4.10;;;;;;;;;;5033409;28;20033;-67
2021/04/23 16:50:28;;;;;;;12.05;3.92;;;;;;;;;;5031566;28;20029;-68
2021/04/23 16:52:55;;;;;;;8.95;3.53;;;;;;;;;;5033370;28;20025;-68
2021/04/23 16:55:21;;;;;;;9.73;4.05;;;;;;;;;;5033747;28;20025;-68
2021/04/23 16:57:47;;;;;;;12.48;4.18;;;;;;;;;;5033380;28;20028;-68
2021/04/23 17:00:14;;;;;;;9.98;3.92;;;;;;;;;;5033544;28;20024;-68
2021/04/23 17:02:40;;;;;;;7.70;3.53;;;;;;;;;;5032991;28;20462;-68
2021/04/23 17:05:06;;;;;;;9.43;4.00;;;;;;;;;;5033364;28;20028;-68
2021/04/23 17:07:33;;;;;;;10.93;4.10;;;;;;;;;;5032412;28;20509;-68
2021/04/23 17:09:59;;;;;;;10.20;3.78;;;;;;;;;;5033314;28;20033;-68
2021/04/23 17:12:25;;;;;;;13.18;4.10;;;;;;;;;;5033336;28;20022;-68
2021/04/23 17:14:50;;;;;;;10.40;4.55;;;;;;;;;;5032909;28;20013;-68
2021/04/23 17:17:16;;;;;;;7.72;3.60;;;;;;;;;;5033118;28;20060;-68
2021/04/23 17:19:41;;;;;;;11.38;3.90;;;;;;;;;;5032998;28;20048;-68
2021/04/23 17:22:07;;;;;;;7.45;3.97;;;;;;;;;;5033133;28;20021;-68
2021/04/23 17:24:32;;;;;;;8.20;3.97;;;;;;;;;;5033042;28;20453;-68
2021/04/23 17:26:58;;;;;;;9.40;3.97;;;;;;;;;;5031489;28;20374;-68
2021/04/23 17:29:23;;;;;;;9.43;4.03;;;;;;;;;;5033017;28;20386;-68
2021/04/23 17:31:49;;;;;;;8.27;3.80;;;;;;;;;;5032709;28;20053;-68
2021/04/23 17:34:15;;;;;;;10.80;3.75;;;;;;;;;;5032798;28;20012;-68
2021/04/23 17:36:40;;;;;;;13.65;4.38;;;;;;;;;;5015110;28;20017;-68
2021/04/23 17:39:06;;;;;;;16.05;3.50;;;;;;;;;;5032257;28;20025;-68
2021/04/23 17:41:32;;;;;;;11.50;4.63;;;;;;;;;;5032773;28;20009;-68
2021/04/23 17:43:58;;;;;;;8.88;4.38;;;;;;;;;;5032576;28;20063;-68
2021/04/23 17:46:23;;;;;;;9.73;4.05;;;;;;;;;;5032585;28;20048;-68
2021/04/23 17:48:50;;;;;;;10.30;5.18;;;;;;;;;;5032411;28;20060;-68
2021/04/23 17:51:17;;;;;;;13.13;5.30;;;;;;;;;;5032713;28;20028;-68
2021/04/23 17:53:45;;;;;;;17.70;5.93;;;;;;;;;;5032376;28;20020;-68
2021/04/23 17:56:12;;;;;;;16.03;6.57;;;;;;;;;;5032617;28;20028;-68
2021/04/23 17:58:38;;;;;;;16.98;7.55;;;;;;;;;;5032201;28;20395;-68
2021/04/23 18:01:04;;;;;;;14.32;6.25;;;;;;;;;;5032472;28;20017;-68
2021/04/23 18:03:30;;;;;;;12.18;5.63;;;;;;;;;;5032233;28;20017;-68
2021/04/23 18:05:55;;;;;;;11.40;5.40;;;;;;;;;;5032220;28;20045;-67
2021/04/23 18:08:21;;;;;;;14.75;6.07;;;;;;;;;;5031826;28;20048;-67
2021/04/23 18:10:46;;;;;;;12.30;5.25;;;;;;;;;;5032053;28;20041;-67
2021/04/23 18:13:12;;;;;;;11.90;5.05;;;;;;;;;;5032467;28;20017;-67
2021/04/23 18:15:37;;;;;;;12.02;5.05;;;;;;;;;;5032175;28;20018;-67
2021/04/23 18:18:03;;;;;;;17.00;5.18;;;;;;;;;;5032630;28;20539;-67
2021/04/23 18:20:28;;;;;;;11.55;5.00;;;;;;;;;;5032164;28;20014;-68
2021/04/23 18:22:54;;;;;;;13.57;5.07;;;;;;;;;;5032206;28;20025;-67
2021/04/23 18:25:20;;;;;;;17.17;6.63;;;;;;;;;;5032456;28;20009;-67
2021/04/23 18:27:45;;;;;;;12.43;5.40;;;;;;;;;;5031772;28;20025;-67
2021/04/23 18:30:13;;;;;;;17.40;6.95;;;;;;;;;;5032290;28;20029;-67
2021/04/23 18:32:40;;;;;;;15.50;5.63;;;;;;;;;;5032098;28;20030;-67
2021/04/23 18:35:07;;;;;;;13.45;5.40;;;;;;;;;;5032440;28;20013;-67
2021/04/23 18:37:32;;;;;;;13.32;5.47;;;;;;;;;;5031574;28;20100;-67
2021/04/23 18:39:58;;;;;;;13.95;5.20;;;;;;;;;;5032028;28;20478;-67
2021/04/23 18:42:23;;;;;;;14.75;5.95;;;;;;;;;;5032237;28;20016;-67
2021/04/23 18:44:49;;;;;;;19.58;6.40;;;;;;;;;;5031560;28;20120;-67
2021/04/23 18:47:14;;;;;;;17.65;6.22;;;;;;;;;;5032035;28;20029;-67
2021/04/23 18:49:40;;;;;;;15.60;5.75;;;;;;;;;;5032079;28;20051;-67
2021/04/23 18:52:05;;;;;;;14.52;6.20;;;;;;;;;;5032012;28;20017;-67
2021/04/23 18:54:31;;;;;;;15.05;6.15;;;;;;;;;;5032101;28;20017;-67
2021/04/23 18:56:56;;;;;;;22.60;7.13;;;;;;;;;;5031648;28;20019;-67
2021/04/23 18:59:22;;;;;;;16.48;6.28;;;;;;;;;;5031856;28;20378;-67
2021/04/23 19:01:47;;;;;;;17.45;6.90;;;;;;;;;;5031770;28;20083;-67
2021/04/23 19:04:13;;;;;;;18.15;6.60;;;;;;;;;;5031970;28;20022;-67
2021/04/23 19:06:38;;;;;;;17.67;6.57;;;;;;;;;;5031383;28;20053;-67
2021/04/23 19:09:05;;;;;;;15.77;6.60;;;;;;;;;;5031460;28;20027;-67
2021/04/23 19:11:32;;;;;;;13.15;6.25;;;;;;;;;;5031922;28;20109;-67
2021/04/23 19:14:00;;;;;;;16.45;6.90;;;;;;;;;;5040838;28;20439;-68
2021/04/23 19:16:27;;;;;;;14.68;6.47;;;;;;;;;;5074733;28;20017;-67
2021/04/23 19:18:54;;;;;;;16.95;6.57;;;;;;;;;;5074882;28;20410;-67
2021/04/23 19:21:20;;;;;;;14.18;6.13;;;;;;;;;;5075248;28;20059;-67
2021/04/23 19:23:46;;;;;;;20.85;7.10;;;;;;;;;;5075172;28;20507;-68
2021/04/23 19:26:11;;;;;;;21.27;6.65;;;;;;;;;;5073970;28;20020;-68
2021/04/23 19:28:37;;;;;;;16.92;7.47;;;;;;;;;;5074798;28;20471;-66
2021/04/23 19:31:02;;;;;;;24.58;8.45;;;;;;;;;;5074959;28;20158;-67
2021/04/23 19:33:28;;;;;;;51.17;13.25;;;;;;;;;;5075322;28;20021;-67
2021/04/23 19:35:55;;;;;;;51.65;23.45;;;;;;;;;;5074990;28;20017;-68
2021/04/23 19:38:21;;;;;;;70.13;36.03;;;;;;;;;;5074332;28;20473;-68
2021/04/23 19:40:47;;;;;;;69.20;32.40;;;;;;;;;;5074618;28;20020;-68
2021/04/23 19:43:12;;;;;;;52.40;23.33;;;;;;;;;;5075012;28;20086;-68
2021/04/23 19:45:39;;;;;;;48.13;25.45;;;;;;;;;;5074606;28;20013;-68
2021/04/23 19:48:05;;;;;;;44.58;18.55;;;;;;;;;;5074952;28;20099;-68
2021/04/23 19:50:31;;;;;;;41.25;20.13;;;;;;;;;;5073486;28;20028;-68
2021/04/23 19:52:56;;;;;;;51.33;20.33;;;;;;;;;;5074415;28;20415;-68
2021/04/23 19:55:23;;;;;;;48.80;20.40;;;;;;;;;;5074720;28;20093;-68
2021/04/23 19:57:49;;;;;;;39.30;16.25;;;;;;;;;;5074429;28;20021;-68
2021/04/23 20:00:18;;;;;;;100.57;47.10;;;;;;;;;;5074608;28;20090;-68
2021/04/23 20:02:43;;;;;;;53.55;27.05;;;;;;;;;;5074332;28;20149;-67
2021/04/23 20:05:09;;;;;;;133.98;62.00;;;;;;;;;;5074596;28;20112;-68
2021/04/23 20:07:35;;;;;;;141.38;62.13;;;;;;;;;;5071600;28;20048;-67
2021/04/23 20:10:00;;;;;;;115.82;52.67;;;;;;;;;;5074146;28;20024;-68
2021/04/23 20:12:26;;;;;;;87.35;36.65;;;;;;;;;;5074374;28;20377;-68
2021/04/23 20:14:52;;;;;;;60.83;25.98;;;;;;;;;;5073803;28;20385;-68
2021/04/23 20:17:18;;;;;;;40.65;18.63;;;;;;;;;;5074451;28;20024;-68
2021/04/23 20:19:43;;;;;;;37.47;16.10;;;;;;;;;;5074005;28;20012;-68
2021/04/23 20:22:09;;;;;;;32.72;15.85;;;;;;;;;;5074186;28;20032;-68
2021/04/23 20:24:34;;;;;;;41.10;17.05;;;;;;;;;;5073962;28;20019;-67
2021/04/23 20:27:00;;;;;;;44.10;16.77;;;;;;;;;;5073826;28;20024;-68
2021/04/23 20:29:26;;;;;;;43.92;20.27;;;;;;;;;;5074045;28;20033;-68
2021/04/23 20:31:52;;;;;;;36.45;17.08;;;;;;;;;;5074050;28;20016;-68
2021/04/23 20:34:17;;;;;;;36.05;16.45;;;;;;;;;;5074033;28;20031;-68
2021/04/23 20:36:42;;;;;;;40.55;17.60;;;;;;;;;;5073575;28;20012;-68
2021/04/23 20:39:08;;;;;;;49.33;18.30;;;;;;;;;;5073255;28;20028;-68